createdAt,value
2022-10-29T00:02:27.386Z,6.65
2022-10-29T00:04:55.166Z,6.80
2022-10-29T00:07:22.851Z,7.05
2022-10-29T00:09:50.425Z,7.20
2022-10-29T00:12:19.624Z,6.63
2022-10-29T00:14:47.229Z,7.90
2022-10-29T00:17:15.893Z,6.38
2022-10-29T00:19:43.479Z,7.32
2022-10-29T00:22:11.018Z,6.30
2022-10-29T00:24:38.669Z,7.05
2022-10-29T00:27:06.364Z,6.65
2022-10-29T00:29:35.402Z,5.82
2022-10-29T00:32:03.287Z,5.70
2022-10-29T00:34:30.990Z,5.57
2022-10-29T00:36:58.592Z,5.50
2022-10-29T00:39:26.206Z,6.22
2022-10-29T00:41:53.788Z,5.70
2022-10-29T00:44:26.676Z,6.43
2022-10-29T00:47:00.867Z,5.70
2022-10-29T00:49:28.675Z,5.70
2022-10-29T00:51:57.454Z,6.22
2022-10-29T00:54:25.184Z,6.30
2022-10-29T00:56:56.657Z,5.78
2022-10-29T00:59:25.632Z,6.43
2022-10-29T01:01:55.950Z,6.50
2022-10-29T01:04:25.395Z,5.95
2022-10-29T01:06:53.287Z,4.43
2022-10-29T01:09:21.018Z,4.70
2022-10-29T01:12:01.019Z,4.43
2022-10-29T01:14:37.409Z,5.75
2022-10-29T01:17:17.762Z,5.10
2022-10-29T01:20:06.691Z,5.10
2022-10-29T01:22:40.100Z,4.28
2022-10-29T01:25:32.955Z,4.88
2022-10-29T01:28:09.345Z,5.18
2022-10-29T01:31:00.127Z,4.82
2022-10-29T01:33:39.613Z,4.70
2022-10-29T01:36:14.502Z,5.18
2022-10-29T01:38:50.794Z,5.05
2022-10-29T01:41:28.752Z,5.95
2022-10-29T01:44:02.670Z,5.32
2022-10-29T01:46:37.784Z,5.35
2022-10-29T01:49:11.944Z,5.25
2022-10-29T01:51:40.328Z,6.30
2022-10-29T01:54:10.928Z,6.18
2022-10-29T01:56:38.891Z,5.95
2022-10-29T01:59:14.421Z,6.18
2022-10-29T02:02:06.951Z,6.38
2022-10-29T02:04:49.759Z,6.13
2022-10-29T02:07:26.651Z,7.38
2022-10-29T02:10:00.333Z,6.65
2022-10-29T02:12:31.835Z,6.07
2022-10-29T02:15:03.635Z,5.82
2022-10-29T02:17:33.578Z,6.78
2022-10-29T02:20:05.503Z,7.38
2022-10-29T02:22:33.577Z,6.07
2022-10-29T02:25:01.904Z,7.75
2022-10-29T02:27:29.765Z,7.00
2022-10-29T02:29:57.415Z,7.63
2022-10-29T02:32:25.068Z,7.95
2022-10-29T02:34:54.036Z,7.57
2022-10-29T02:37:21.827Z,7.63
2022-10-29T02:39:49.403Z,7.68
2022-10-29T02:42:17.191Z,8.45
2022-10-29T02:44:44.848Z,6.65
2022-10-29T02:47:12.617Z,7.50
2022-10-29T02:49:40.386Z,10.35
2022-10-29T02:52:09.474Z,9.82
2022-10-29T02:54:37.028Z,7.97
2022-10-29T02:57:04.792Z,7.90
2022-10-29T02:59:32.385Z,7.72
2022-10-29T03:02:00.295Z,7.80
2022-10-29T03:04:28.275Z,8.18
2022-10-29T03:06:55.957Z,7.97
2022-10-29T03:09:25.407Z,8.80
2022-10-29T03:11:53.287Z,7.82
2022-10-29T03:14:20.976Z,8.93
2022-10-29T03:16:48.838Z,9.15
2022-10-29T03:19:16.462Z,8.77
2022-10-29T03:21:44.256Z,8.82
2022-10-29T03:24:11.870Z,8.50
2022-10-29T03:26:40.888Z,10.63
2022-10-29T03:29:08.688Z,8.07
2022-10-29T03:31:36.535Z,8.70
2022-10-29T03:34:04.194Z,8.75
2022-10-29T03:36:31.956Z,9.00
2022-10-29T03:38:59.515Z,9.00
2022-10-29T03:41:27.100Z,9.20
2022-10-29T03:46:28.774Z,7.88
2022-10-29T03:48:56.357Z,7.85
2022-10-29T03:51:23.989Z,8.23
2022-10-29T03:53:51.666Z,8.82
2022-10-29T03:56:19.491Z,8.65
2022-10-29T03:58:47.207Z,8.38
2022-10-29T04:01:16.416Z,8.48
2022-10-29T04:03:44.317Z,8.05
2022-10-29T04:06:13.630Z,8.20
2022-10-29T04:08:41.935Z,8.65
2022-10-29T04:11:12.168Z,9.50
2022-10-29T04:13:39.778Z,8.68
2022-10-29T04:16:08.057Z,9.02
2022-10-29T04:18:37.031Z,9.15
2022-10-29T04:23:01.925Z,7.95
2022-10-29T04:29:28.019Z,9.95
2022-10-29T04:31:55.661Z,9.63
2022-10-29T04:34:24.623Z,9.38
2022-10-29T04:36:52.653Z,10.18
2022-10-29T04:39:22.594Z,9.45
2022-10-29T04:41:51.553Z,9.10
2022-10-29T04:44:19.922Z,9.27
2022-10-29T04:46:47.625Z,10.50
2022-10-29T04:49:15.303Z,10.73
2022-10-29T04:51:44.428Z,10.02
2022-10-29T04:54:12.335Z,10.45
2022-10-29T04:56:40.047Z,10.30
2022-10-29T04:59:07.590Z,10.45
2022-10-29T05:04:04.013Z,10.25
2022-10-29T05:06:31.669Z,10.32
2022-10-29T05:09:03.240Z,10.57
2022-10-29T05:11:30.969Z,10.50
2022-10-29T05:13:58.686Z,11.20
2022-10-29T05:16:26.490Z,12.02
2022-10-29T05:18:54.273Z,11.55
2022-10-29T05:21:21.900Z,11.05
2022-10-29T05:23:49.512Z,10.38
2022-10-29T05:26:18.553Z,10.52
2022-10-29T05:28:46.197Z,10.95
2022-10-29T05:31:13.827Z,10.10
2022-10-29T05:33:41.468Z,10.00
2022-10-29T05:36:09.241Z,11.25
2022-10-29T05:38:37.347Z,9.13
2022-10-29T05:41:05.177Z,9.90
2022-10-29T05:43:35.368Z,11.25
2022-10-29T05:46:04.213Z,10.50
2022-10-29T05:48:31.863Z,10.40
2022-10-29T05:51:01.254Z,9.27
2022-10-29T05:53:28.982Z,10.05
2022-10-29T05:55:56.945Z,10.20
2022-10-29T05:58:24.556Z,9.65
2022-10-29T06:00:53.556Z,9.88
2022-10-29T06:03:24.332Z,24.88
2022-10-29T06:05:52.118Z,9.25
2022-10-29T06:08:20.226Z,9.10
2022-10-29T06:10:47.884Z,8.32
2022-10-29T06:13:18.123Z,9.80
2022-10-29T06:15:46.147Z,9.90
2022-10-29T06:18:15.978Z,9.00
2022-10-29T06:20:44.300Z,9.73
2022-10-29T06:23:12.834Z,8.23
2022-10-29T06:25:40.708Z,8.68
2022-10-29T06:28:09.820Z,9.15
2022-10-29T06:30:37.701Z,8.65
2022-10-29T06:33:06.137Z,8.60
2022-10-29T06:38:11.942Z,8.32
2022-10-29T06:40:40.303Z,9.25
2022-10-29T06:43:10.628Z,8.30
2022-10-29T06:45:38.933Z,8.95
2022-10-29T06:48:07.348Z,9.32
2022-10-29T06:50:36.259Z,8.27
2022-10-29T06:53:05.993Z,10.75
2022-10-29T06:55:33.912Z,9.88
2022-10-29T06:58:03.130Z,9.55
2022-10-29T07:00:32.018Z,9.93
2022-10-29T07:03:00.663Z,10.90
2022-10-29T07:05:28.958Z,13.18
2022-10-29T07:08:01.353Z,11.13
2022-10-29T07:10:30.669Z,11.40
2022-10-29T07:13:02.112Z,10.32
2022-10-29T07:15:30.870Z,11.05
2022-10-29T07:17:59.749Z,11.10
2022-10-29T07:20:27.996Z,13.88
2022-10-29T07:22:55.606Z,11.43
2022-10-29T07:25:25.020Z,12.15
2022-10-29T07:27:52.889Z,12.43
2022-10-29T07:30:21.212Z,12.50
2022-10-29T07:32:49.004Z,10.85
2022-10-29T07:35:16.820Z,13.02
2022-10-29T07:37:44.540Z,12.23
2022-10-29T07:40:13.450Z,16.13
2022-10-29T07:42:42.461Z,12.90
2022-10-29T07:45:11.233Z,12.95
2022-10-29T07:47:41.718Z,13.68
2022-10-29T07:50:11.489Z,13.50
2022-10-29T07:52:42.294Z,13.32
2022-10-29T07:55:10.608Z,14.45
2022-10-29T07:57:38.345Z,13.27
2022-10-29T08:00:09.022Z,12.95
2022-10-29T08:02:40.069Z,13.73
2022-10-29T08:05:08.838Z,13.43
2022-10-29T08:07:36.445Z,12.40
2022-10-29T08:10:04.242Z,13.98
2022-10-29T08:12:31.845Z,13.40
2022-10-29T08:14:59.464Z,14.82
2022-10-29T08:17:30.919Z,16.48
2022-10-29T08:19:59.268Z,14.55
2022-10-29T08:22:26.931Z,13.82
2022-10-29T08:24:54.557Z,13.38
2022-10-29T08:27:22.130Z,13.95
2022-10-29T08:29:49.921Z,13.30
2022-10-29T08:32:17.508Z,14.18
2022-10-29T08:34:46.716Z,13.88
2022-10-29T08:37:14.379Z,16.60
2022-10-29T08:39:41.966Z,15.85
2022-10-29T08:42:23.686Z,16.63
2022-10-29T08:45:14.388Z,13.50
2022-10-29T08:47:58.157Z,14.95
2022-10-29T08:50:34.298Z,18.58
2022-10-29T08:55:53.211Z,15.48
2022-10-29T08:58:28.873Z,15.05
2022-10-29T09:00:59.047Z,15.63
2022-10-29T09:03:29.566Z,16.63
2022-10-29T09:06:08.829Z,15.82
2022-10-29T09:08:46.982Z,16.35
2022-10-29T09:11:32.860Z,15.95
2022-10-29T09:14:18.272Z,22.50
2022-10-29T09:16:57.290Z,15.52
2022-10-29T09:19:38.348Z,16.85
2022-10-29T09:22:18.661Z,14.38
2022-10-29T09:24:55.259Z,15.45
2022-10-29T09:27:35.135Z,14.48
2022-10-29T09:30:12.698Z,12.88
2022-10-29T09:32:43.664Z,15.40
2022-10-29T09:35:15.815Z,17.55
2022-10-29T09:37:49.276Z,18.35
2022-10-29T09:40:26.278Z,13.50
2022-10-29T09:42:54.599Z,13.50
2022-10-29T09:45:28.816Z,17.30
2022-10-29T09:48:03.562Z,15.80
2022-10-29T09:50:39.638Z,13.63
2022-10-29T09:53:09.256Z,13.32
2022-10-29T09:55:40.358Z,15.13
2022-10-29T09:58:08.895Z,16.05
2022-10-29T10:00:36.709Z,14.65
2022-10-29T10:03:11.459Z,13.45
2022-10-29T10:05:58.302Z,15.38
2022-10-29T10:08:27.580Z,14.13
2022-10-29T10:10:57.326Z,13.68
2022-10-29T10:13:27.998Z,13.95
2022-10-29T10:15:57.798Z,13.48
2022-10-29T10:18:27.542Z,13.13
2022-10-29T10:21:04.144Z,12.77
2022-10-29T10:23:42.856Z,12.50
2022-10-29T10:26:32.748Z,11.88
2022-10-29T10:29:12.152Z,12.38
2022-10-29T10:31:40.030Z,11.15
2022-10-29T10:34:16.377Z,13.43
2022-10-29T10:36:46.287Z,12.10
2022-10-29T10:39:28.514Z,12.65
2022-10-29T10:41:57.157Z,13.52
2022-10-29T10:44:25.174Z,11.70
2022-10-29T10:46:55.584Z,13.07
2022-10-29T10:49:32.225Z,12.85
2022-10-29T10:52:02.586Z,11.10
2022-10-29T10:54:36.709Z,11.23
2022-10-29T10:57:06.916Z,11.07
2022-10-29T10:59:50.599Z,10.57
2022-10-29T11:02:26.959Z,9.55
2022-10-29T11:05:03.595Z,9.98
2022-10-29T11:07:41.500Z,10.82
2022-10-29T11:10:13.702Z,10.43
2022-10-29T11:12:44.111Z,10.70
2022-10-29T11:15:19.033Z,12.20
2022-10-29T11:17:54.351Z,11.02
2022-10-29T11:20:26.988Z,10.82
2022-10-29T11:23:05.891Z,10.73
2022-10-29T11:25:40.949Z,10.88
2022-10-29T11:28:19.929Z,10.20
2022-10-29T11:30:52.532Z,9.88
2022-10-29T11:33:26.896Z,10.13
2022-10-29T11:36:01.657Z,10.55
2022-10-29T11:38:34.881Z,10.73
2022-10-29T11:41:08.485Z,10.77
2022-10-29T11:43:36.533Z,11.30
2022-10-29T11:46:12.741Z,11.82
2022-10-29T11:48:52.043Z,11.00
2022-10-29T11:51:29.694Z,10.10
2022-10-29T11:54:01.387Z,11.50
2022-10-29T11:56:46.009Z,10.65
2022-10-29T11:59:23.453Z,9.63
2022-10-29T12:01:58.085Z,11.38
2022-10-29T12:04:29.930Z,8.95
2022-10-29T12:07:10.835Z,8.93
2022-10-29T12:09:58.374Z,9.05
2022-10-29T12:12:32.210Z,8.30
2022-10-29T12:15:10.395Z,7.75
2022-10-29T12:17:45.704Z,7.63
2022-10-29T12:20:22.101Z,8.73
2022-10-29T12:23:03.652Z,7.28
2022-10-29T12:25:40.100Z,7.05
2022-10-29T12:28:20.036Z,8.07
2022-10-29T12:31:05.084Z,7.55
2022-10-29T12:33:39.202Z,8.02
2022-10-29T12:36:16.098Z,8.75
2022-10-29T12:38:48.207Z,8.32
2022-10-29T12:41:20.225Z,8.43
2022-10-29T12:43:49.637Z,9.63
2022-10-29T12:46:29.001Z,10.00
2022-10-29T12:49:08.386Z,10.35
2022-10-29T12:51:44.423Z,9.07
2022-10-29T12:54:32.425Z,7.68
2022-10-29T12:57:06.021Z,7.45
2022-10-29T12:59:38.150Z,7.13
2022-10-29T13:02:25.079Z,7.60
2022-10-29T13:05:20.672Z,7.40
2022-10-29T13:08:12.248Z,6.85
2022-10-29T13:10:51.783Z,6.95
2022-10-29T13:13:23.639Z,7.70
2022-10-29T13:16:01.736Z,6.10
2022-10-29T13:18:42.051Z,6.20
2022-10-29T13:21:10.001Z,6.32
2022-10-29T13:23:38.296Z,7.30
2022-10-29T13:26:06.954Z,5.90
2022-10-29T13:28:49.279Z,6.38
2022-10-29T13:31:49.962Z,7.30
2022-10-29T13:34:56.057Z,7.18
2022-10-29T13:38:02.735Z,6.57
2022-10-29T13:40:42.023Z,6.35
2022-10-29T13:43:15.563Z,6.40
2022-10-29T13:45:48.330Z,7.00
2022-10-29T13:48:25.391Z,7.88
2022-10-29T13:50:55.551Z,6.60
2022-10-29T13:53:34.371Z,7.50
2022-10-29T13:56:02.697Z,6.82
2022-10-29T13:58:33.259Z,11.02
2022-10-29T14:01:15.463Z,6.28
2022-10-29T14:03:58.709Z,6.95
2022-10-29T14:06:30.442Z,6.10
2022-10-29T14:09:09.623Z,12.05
2022-10-29T14:11:42.596Z,6.25
2022-10-29T14:14:25.948Z,6.43
2022-10-29T14:17:10.650Z,5.95
2022-10-29T14:19:44.706Z,5.35
2022-10-29T14:22:35.630Z,6.20
2022-10-29T14:25:25.526Z,5.93
2022-10-29T14:28:25.886Z,6.22
2022-10-29T14:31:07.573Z,5.57
2022-10-29T14:33:37.747Z,6.15
2022-10-29T14:36:14.091Z,5.43
2022-10-29T14:38:45.537Z,6.13
2022-10-29T14:41:13.491Z,6.22
2022-10-29T14:43:41.985Z,5.47
2022-10-29T14:46:24.529Z,5.82
2022-10-29T14:48:57.466Z,6.22
2022-10-29T14:51:27.886Z,6.55
2022-10-29T14:54:01.015Z,6.72
2022-10-29T14:56:34.280Z,6.32
2022-10-29T14:59:08.596Z,7.03
2022-10-29T15:01:46.060Z,7.00
2022-10-29T15:04:24.084Z,6.07
2022-10-29T15:07:17.929Z,7.13
2022-10-29T15:09:47.470Z,6.22
2022-10-29T15:12:21.961Z,6.75
2022-10-29T15:14:51.687Z,7.32
2022-10-29T15:17:24.341Z,6.68
2022-10-29T15:19:54.938Z,7.05
2022-10-29T15:22:27.661Z,7.22
2022-10-29T15:24:56.656Z,6.88
2022-10-29T15:27:24.947Z,7.07
2022-10-29T15:29:54.060Z,7.50
2022-10-29T15:32:24.137Z,8.23
2022-10-29T15:34:56.806Z,7.07
2022-10-29T15:37:40.626Z,6.88
2022-10-29T15:40:13.312Z,8.65
2022-10-29T15:42:41.925Z,6.88
2022-10-29T15:45:24.999Z,7.72
2022-10-29T15:47:56.690Z,6.82
2022-10-29T15:50:27.697Z,7.82
2022-10-29T15:52:59.160Z,7.18
2022-10-29T15:55:30.571Z,7.70
2022-10-29T15:58:04.889Z,7.53
2022-10-29T16:00:33.470Z,8.23
2022-10-29T16:03:13.511Z,8.38
2022-10-29T16:05:41.834Z,7.65
2022-10-29T16:08:25.558Z,8.55
2022-10-29T16:10:53.421Z,9.57
2022-10-29T16:13:22.032Z,8.73
2022-10-29T16:15:49.991Z,8.68
2022-10-29T16:18:23.616Z,9.70
2022-10-29T16:20:55.267Z,9.65
2022-10-29T16:23:24.534Z,9.60
2022-10-29T16:25:52.318Z,9.88
2022-10-29T16:28:20.170Z,10.80
2022-10-29T16:30:53.777Z,11.63
2022-10-29T16:33:23.409Z,11.02
2022-10-29T16:35:52.889Z,9.45
2022-10-29T16:38:26.543Z,9.50
2022-10-29T16:40:54.375Z,10.07
2022-10-29T16:43:22.020Z,11.57
2022-10-29T16:45:50.069Z,9.07
2022-10-29T16:48:18.064Z,9.40
2022-10-29T16:50:46.049Z,10.57
2022-10-29T16:53:13.735Z,10.30
2022-10-29T16:55:42.848Z,10.75
2022-10-29T16:58:13.336Z,10.52
2022-10-29T17:00:41.174Z,10.07
2022-10-29T17:03:12.050Z,10.00
2022-10-29T17:05:41.841Z,11.77
2022-10-29T17:08:10.203Z,15.57
2022-10-29T17:10:38.387Z,10.95
2022-10-29T17:13:09.148Z,10.10
2022-10-29T17:15:39.908Z,10.40
2022-10-29T17:18:07.741Z,10.57
2022-10-29T17:20:35.713Z,10.40
2022-10-29T17:23:03.508Z,10.88
2022-10-29T17:25:31.318Z,11.07
2022-10-29T17:27:59.408Z,9.38
2022-10-29T17:30:28.707Z,11.18
2022-10-29T17:32:56.614Z,12.10
2022-10-29T17:35:24.523Z,11.75
2022-10-29T17:37:52.341Z,10.82
2022-10-29T17:40:20.303Z,12.73
2022-10-29T17:42:48.021Z,12.35
2022-10-29T17:45:20.272Z,12.85
2022-10-29T17:47:49.559Z,13.88
2022-10-29T17:50:17.287Z,13.50
2022-10-29T17:52:44.957Z,11.73
2022-10-29T17:55:12.664Z,13.75
2022-10-29T17:57:40.553Z,12.77
2022-10-29T18:00:09.743Z,11.93
2022-10-29T18:02:37.376Z,13.30
2022-10-29T18:05:06.996Z,11.27
2022-10-29T18:07:34.729Z,11.02
2022-10-29T18:10:02.621Z,11.20
2022-10-29T18:12:30.411Z,12.52
2022-10-29T18:14:58.157Z,12.57
2022-10-29T18:17:25.974Z,11.10
2022-10-29T18:19:53.672Z,11.38
2022-10-29T18:22:22.628Z,11.48
2022-10-29T18:24:50.295Z,11.82
2022-10-29T18:27:18.089Z,12.43
2022-10-29T18:29:45.720Z,10.98
2022-10-29T18:32:13.578Z,12.30
2022-10-29T18:34:41.665Z,11.45
2022-10-29T18:37:09.721Z,10.75
2022-10-29T18:39:39.106Z,10.80
2022-10-29T18:42:06.964Z,11.70
2022-10-29T18:44:34.809Z,11.63
2022-10-29T18:47:02.525Z,11.50
2022-10-29T18:49:30.319Z,12.05
2022-10-29T18:51:57.851Z,12.18
2022-10-29T18:54:26.558Z,13.50
2022-10-29T18:56:55.627Z,13.90
2022-10-29T18:59:23.343Z,11.02
2022-10-29T19:01:51.149Z,12.80
2022-10-29T19:04:19.016Z,12.90
2022-10-29T19:06:46.695Z,13.00
2022-10-29T19:09:14.295Z,13.27
2022-10-29T19:11:41.892Z,13.18
2022-10-29T19:14:14.648Z,13.35
2022-10-29T19:16:42.350Z,13.63
2022-10-29T19:19:13.141Z,11.88
2022-10-29T19:21:43.002Z,13.48
2022-10-29T19:24:14.298Z,13.77
2022-10-29T19:26:42.555Z,11.45
2022-10-29T19:29:13.111Z,12.88
2022-10-29T19:31:41.621Z,12.63
2022-10-29T19:34:09.435Z,14.05
2022-10-29T19:36:39.841Z,13.15
2022-10-29T19:39:07.889Z,13.10
2022-10-29T19:41:35.535Z,15.60
2022-10-29T19:44:03.811Z,12.52
2022-10-29T19:46:32.834Z,12.25
2022-10-29T19:49:00.771Z,12.93
2022-10-29T19:51:28.845Z,13.25
2022-10-29T19:53:57.919Z,14.27
2022-10-29T19:56:25.810Z,14.38
2022-10-29T19:58:53.431Z,12.60
2022-10-29T20:01:21.145Z,14.50
2022-10-29T20:03:50.405Z,13.65
2022-10-29T20:06:18.125Z,13.18
2022-10-29T20:08:45.727Z,13.80
2022-10-29T20:11:13.597Z,14.90
2022-10-29T20:13:41.256Z,15.70
2022-10-29T20:16:10.620Z,15.75
2022-10-29T20:18:39.068Z,15.55
2022-10-29T20:21:11.562Z,14.98
2022-10-29T20:23:39.453Z,14.10
2022-10-29T20:26:08.633Z,14.07
2022-10-29T20:28:36.566Z,16.73
2022-10-29T20:31:27.866Z,15.07
2022-10-29T20:33:59.092Z,14.93
2022-10-29T20:36:29.457Z,16.15
2022-10-29T20:38:57.657Z,15.48
2022-10-29T20:41:25.613Z,16.65
2022-10-29T20:43:54.703Z,15.05
2022-10-29T20:46:22.568Z,15.15
2022-10-29T20:48:50.252Z,16.15
2022-10-29T20:51:17.997Z,15.70
2022-10-29T20:53:47.046Z,14.27
2022-10-29T20:56:16.358Z,13.90
2022-10-29T20:58:44.711Z,14.57
2022-10-29T21:01:14.158Z,14.73
2022-10-29T21:03:42.356Z,15.32
2022-10-29T21:06:13.995Z,15.35
2022-10-29T21:08:43.800Z,15.15
2022-10-29T21:11:14.259Z,14.23
2022-10-29T21:13:42.117Z,15.48
2022-10-29T21:16:13.850Z,14.60
2022-10-29T21:18:42.845Z,15.10
2022-10-29T21:21:11.015Z,15.13
2022-10-29T21:23:38.884Z,14.30
2022-10-29T21:26:07.617Z,14.93
2022-10-29T21:28:36.786Z,17.15
2022-10-29T21:31:05.119Z,14.80
2022-10-29T21:33:32.830Z,15.00
2022-10-29T21:36:00.674Z,16.70
2022-10-29T21:38:29.289Z,15.90
2022-10-29T21:40:57.123Z,16.45
2022-10-29T21:43:24.940Z,15.65
2022-10-29T21:45:54.231Z,15.63
2022-10-29T21:48:21.948Z,14.88
2022-10-29T21:50:49.648Z,14.73
2022-10-29T21:53:17.243Z,16.30
2022-10-29T21:55:44.882Z,14.90
2022-10-29T21:58:12.527Z,13.07
2022-10-29T22:00:40.164Z,14.77
2022-10-29T22:03:09.142Z,13.55
2022-10-29T22:05:36.770Z,13.10
2022-10-29T22:08:04.569Z,13.68
2022-10-29T22:10:32.234Z,13.38
2022-10-29T22:13:00.412Z,13.30
2022-10-29T22:15:28.521Z,13.18
2022-10-29T22:17:56.456Z,14.45
2022-10-29T22:20:25.620Z,13.02
2022-10-29T22:22:53.441Z,13.55
2022-10-29T22:25:21.347Z,13.27
2022-10-29T22:27:48.959Z,13.05
2022-10-29T22:30:16.631Z,14.15
2022-10-29T22:32:44.221Z,13.20
2022-10-29T22:35:11.866Z,13.48
2022-10-29T22:37:40.838Z,14.75
2022-10-29T22:40:10.049Z,14.90
2022-10-29T22:42:37.904Z,14.48
2022-10-29T22:45:06.993Z,14.57
2022-10-29T22:47:34.676Z,15.50
2022-10-29T22:50:02.310Z,14.27
2022-10-29T22:52:30.079Z,14.52
2022-10-29T22:54:59.251Z,15.50
2022-10-29T22:57:26.962Z,13.57
2022-10-29T22:59:54.665Z,13.98
2022-10-29T23:02:22.592Z,14.27
2022-10-29T23:04:50.348Z,14.35
2022-10-29T23:07:18.057Z,15.05
2022-10-29T23:09:46.047Z,13.13
2022-10-29T23:12:15.080Z,14.55
2022-10-29T23:14:42.846Z,15.13
2022-10-29T23:17:10.616Z,14.20
2022-10-29T23:19:38.354Z,14.27
2022-10-29T23:22:06.127Z,15.50
2022-10-29T23:24:34.020Z,15.18
2022-10-29T23:27:01.763Z,14.77
2022-10-29T23:29:30.817Z,15.18
2022-10-29T23:31:58.412Z,15.20
2022-10-29T23:34:26.069Z,14.63
2022-10-29T23:36:54.086Z,15.73
2022-10-29T23:39:21.720Z,16.33
2022-10-29T23:41:49.471Z,16.80
2022-10-29T23:44:17.205Z,13.52
2022-10-29T23:46:46.318Z,14.45
2022-10-29T23:49:14.016Z,15.07
2022-10-29T23:51:41.894Z,14.95
2022-10-29T23:54:09.544Z,14.05
2022-10-29T23:56:37.240Z,13.70
2022-10-29T23:59:05.069Z,12.77
